createdAt,value
2019-05-05T00:01:55.541Z,99.90
2019-05-05T00:04:28.978Z,99.90
2019-05-05T00:07:01.619Z,99.90
2019-05-05T00:09:35.447Z,99.90
2019-05-05T00:12:09.164Z,99.90
2019-05-05T00:14:44.274Z,99.90
2019-05-05T00:17:17.876Z,99.90
2019-05-05T00:19:50.281Z,99.90
2019-05-05T00:22:24.532Z,99.90
2019-05-05T00:24:56.749Z,99.90
2019-05-05T00:27:29.337Z,99.90
2019-05-05T00:30:02.131Z,99.90
2019-05-05T00:32:36.094Z,99.90
2019-05-05T00:35:09.713Z,99.90
2019-05-05T00:37:42.216Z,99.90
2019-05-05T00:40:14.909Z,99.90
2019-05-05T00:42:47.423Z,99.90
2019-05-05T00:45:19.947Z,99.90
2019-05-05T00:47:54.445Z,99.90
2019-05-05T00:50:27.254Z,99.90
2019-05-05T00:53:00.011Z,99.90
2019-05-05T00:55:34.858Z,99.90
2019-05-05T00:58:06.466Z,99.90
2019-05-05T01:00:40.112Z,99.90
2019-05-05T01:03:15.317Z,99.90
2019-05-05T01:05:50.416Z,99.90
2019-05-05T01:08:24.960Z,99.90
2019-05-05T01:10:57.369Z,99.90
2019-05-05T01:13:29.879Z,99.90
2019-05-05T01:16:02.373Z,99.90
2019-05-05T01:18:35.257Z,99.90
2019-05-05T01:21:07.866Z,99.90
2019-05-05T01:23:40.286Z,99.90
2019-05-05T01:26:14.355Z,99.90
2019-05-05T01:28:47.110Z,99.90
2019-05-05T01:31:21.015Z,99.90
2019-05-05T01:33:55.196Z,99.90
2019-05-05T01:36:27.816Z,99.90
2019-05-05T01:39:01.384Z,99.90
2019-05-05T01:41:36.619Z,99.90
2019-05-05T01:44:09.516Z,99.90
2019-05-05T01:46:41.895Z,99.90
2019-05-05T01:49:14.661Z,99.90
2019-05-05T01:51:47.172Z,99.90
2019-05-05T01:54:19.447Z,99.90
2019-05-05T01:56:52.521Z,99.90
2019-05-05T01:59:25.285Z,99.90
2019-05-05T02:01:58.162Z,99.90
2019-05-05T02:04:30.773Z,99.90
2019-05-05T02:07:05.287Z,99.90
2019-05-05T02:09:37.294Z,99.90
2019-05-05T02:12:10.067Z,99.90
2019-05-05T02:14:44.270Z,99.90
2019-05-05T02:17:16.106Z,99.90
2019-05-05T02:19:48.601Z,99.90
2019-05-05T02:22:21.855Z,99.90
2019-05-05T02:24:55.077Z,99.90
2019-05-05T02:27:27.860Z,99.90
2019-05-05T02:30:01.741Z,99.90
2019-05-05T02:32:36.250Z,99.90
2019-05-05T02:35:10.932Z,99.90
2019-05-05T02:37:45.710Z,99.90
2019-05-05T02:40:18.078Z,99.90
2019-05-05T02:42:50.821Z,99.90
2019-05-05T02:45:26.415Z,99.90
2019-05-05T02:48:00.532Z,99.90
2019-05-05T02:50:51.110Z,99.90
2019-05-05T02:53:10.757Z,99.90
2019-05-05T02:55:44.239Z,99.90
2019-05-05T02:58:16.840Z,99.90
2019-05-05T03:00:50.646Z,99.90
2019-05-05T03:03:23.885Z,99.90
2019-05-05T03:05:57.539Z,99.90
2019-05-05T03:08:33.505Z,99.90
2019-05-05T03:11:05.858Z,99.90
2019-05-05T03:13:40.554Z,99.90
2019-05-05T03:16:15.327Z,99.90
2019-05-05T03:18:48.426Z,99.90
2019-05-05T03:21:21.376Z,99.90
2019-05-05T03:23:54.737Z,99.90
2019-05-05T03:26:27.993Z,99.90
2019-05-05T03:29:01.941Z,99.90
2019-05-05T03:31:35.354Z,99.90
2019-05-05T03:34:07.928Z,99.90
2019-05-05T03:36:40.580Z,99.90
2019-05-05T03:39:14.489Z,99.90
2019-05-05T03:41:48.260Z,99.90
2019-05-05T03:44:24.045Z,99.90
2019-05-05T03:46:56.454Z,99.90
2019-05-05T03:49:29.059Z,99.90
2019-05-05T03:52:02.201Z,99.90
2019-05-05T03:54:34.893Z,99.90
2019-05-05T03:57:08.710Z,99.90
2019-05-05T03:59:44.929Z,99.90
2019-05-05T04:02:18.962Z,99.90
2019-05-05T04:04:54.786Z,99.90
2019-05-05T04:07:26.730Z,99.90
2019-05-05T04:10:00.266Z,99.90
2019-05-05T04:12:34.604Z,99.90
2019-05-05T04:15:08.368Z,99.90
2019-05-05T07:36:39.399Z,99.90
2019-05-05T07:39:14.331Z,98.90
2019-05-05T07:41:46.600Z,98.70
2019-05-05T07:44:26.650Z,98.90
2019-05-05T07:46:54.356Z,99.70
2019-05-05T07:49:27.065Z,99.50
2019-05-05T07:51:59.546Z,98.90
2019-05-05T07:54:34.088Z,98.30
2019-05-05T07:57:05.991Z,99.80
2019-05-05T07:59:38.469Z,98.10
2019-05-05T08:02:11.162Z,98.40
2019-05-05T08:04:43.827Z,98.60
2019-05-05T08:07:16.287Z,98.10
2019-05-05T08:09:49.019Z,97.70
2019-05-05T08:12:21.574Z,98.30
2019-05-05T08:14:54.776Z,99.70
2019-05-05T08:17:28.730Z,97.60
2019-05-05T08:20:03.992Z,97.70
2019-05-05T08:22:37.772Z,96.50
2019-05-05T08:25:11.836Z,95.70
2019-05-05T08:27:46.501Z,95.60
2019-05-05T08:30:20.216Z,96.20
2019-05-05T08:32:54.531Z,95.20
2019-05-05T08:35:27.015Z,95.40
2019-05-05T08:37:59.760Z,95.60
2019-05-05T08:40:34.410Z,95.60
2019-05-05T08:43:06.541Z,96.40
2019-05-05T08:45:38.849Z,96.20
2019-05-05T08:48:11.314Z,97.10
2019-05-05T08:50:43.989Z,96.30
2019-05-05T08:53:16.568Z,96.00
2019-05-05T08:55:48.916Z,95.90
2019-05-05T08:58:23.698Z,95.30
2019-05-05T09:00:55.124Z,96.60
2019-05-05T09:03:27.466Z,95.40
2019-05-05T09:05:59.835Z,95.20
2019-05-05T09:08:34.552Z,95.70
2019-05-05T09:11:06.564Z,95.10
2019-05-05T09:13:39.195Z,94.80
2019-05-05T09:16:14.211Z,95.10
2019-05-05T09:18:46.971Z,95.00
2019-05-05T09:21:19.738Z,95.20
2019-05-05T09:23:59.883Z,95.20
2019-05-05T09:26:27.557Z,95.00
2019-05-05T09:29:01.171Z,95.20
2019-05-05T09:31:34.377Z,95.50
2019-05-05T09:34:07.434Z,94.70
2019-05-05T09:36:40.046Z,94.90
2019-05-05T09:39:13.865Z,95.00
2019-05-05T09:41:46.466Z,95.10
2019-05-05T09:44:18.858Z,95.10
2019-05-05T09:46:53.638Z,95.30
2019-05-05T09:49:25.443Z,95.60
2019-05-05T09:51:59.011Z,95.20
2019-05-05T09:54:31.611Z,95.40
2019-05-05T09:57:04.556Z,95.70
2019-05-05T09:59:40.115Z,95.80
2019-05-05T10:02:10.917Z,95.30
2019-05-05T10:04:44.066Z,95.40
2019-05-05T10:07:16.846Z,96.10
2019-05-05T10:09:49.412Z,95.70
2019-05-05T10:12:21.916Z,96.60
2019-05-05T10:14:54.836Z,95.90
2019-05-05T10:17:27.417Z,96.20
2019-05-05T10:19:59.979Z,96.30
2019-05-05T10:22:34.168Z,96.20
2019-05-05T10:25:08.610Z,96.30
2019-05-05T10:27:46.972Z,97.20
2019-05-05T10:30:16.760Z,97.90
2019-05-05T10:32:49.359Z,97.80
2019-05-05T10:35:23.752Z,98.10
2019-05-05T10:37:55.970Z,98.60
2019-05-05T10:40:30.031Z,98.70
2019-05-05T10:43:04.433Z,98.90
2019-05-05T10:45:37.030Z,98.90
2019-05-05T10:48:09.621Z,99.20
2019-05-05T10:50:44.274Z,99.50
2019-05-05T10:53:16.305Z,99.90
2019-05-05T10:55:50.206Z,99.90
2019-05-05T10:58:24.252Z,99.90
2019-05-05T11:00:57.921Z,99.90
2019-05-05T11:03:31.015Z,99.90
2019-05-05T11:06:04.558Z,99.90
2019-05-05T11:08:37.107Z,99.90
2019-05-05T11:11:09.730Z,99.90
2019-05-05T11:13:44.982Z,99.90
2019-05-05T11:16:16.362Z,99.90
2019-05-05T11:18:49.083Z,99.90
2019-05-05T11:21:23.574Z,99.90
2019-05-05T11:23:55.671Z,99.90
2019-05-05T11:26:28.240Z,99.90
2019-05-05T11:29:00.780Z,99.90
2019-05-05T11:31:34.369Z,99.90
2019-05-05T11:34:08.128Z,99.90
2019-05-05T11:36:43.782Z,99.90
2019-05-05T11:39:15.838Z,99.90
2019-05-05T11:41:48.562Z,99.90
2019-05-05T11:44:24.136Z,99.90
2019-05-05T11:46:55.839Z,99.90
2019-05-05T11:49:28.522Z,99.90
2019-05-05T11:52:01.086Z,99.90
2019-05-05T11:54:34.221Z,99.90
2019-05-05T11:57:08.652Z,99.90
2019-05-05T11:59:41.213Z,99.90
2019-05-05T12:02:14.091Z,99.90
2019-05-05T12:04:46.433Z,99.90
2019-05-05T12:07:19.272Z,99.90
2019-05-05T12:09:54.916Z,99.90
2019-05-05T12:12:27.462Z,99.90
2019-05-05T12:14:59.818Z,99.90
2019-05-05T12:17:33.681Z,99.90
2019-05-05T12:20:08.389Z,99.90
2019-05-05T12:22:41.243Z,99.90
2019-05-05T12:25:25.504Z,99.90
2019-05-05T12:27:51.130Z,99.90
2019-05-05T12:30:24.505Z,99.90
2019-05-05T12:32:56.946Z,99.90
2019-05-05T12:35:29.300Z,99.90
2019-05-05T12:38:02.393Z,99.90
2019-05-05T12:40:34.979Z,99.90
2019-05-05T12:43:07.650Z,99.90
2019-05-05T12:45:41.550Z,99.90
2019-05-05T12:48:15.261Z,99.90
2019-05-05T12:50:48.306Z,99.90
2019-05-05T12:53:20.988Z,99.90
2019-05-05T12:55:53.877Z,99.90
2019-05-05T12:58:26.454Z,99.90
2019-05-05T13:01:00.482Z,99.90
2019-05-05T13:03:34.587Z,99.90
2019-05-05T13:06:07.600Z,99.90
2019-05-05T13:08:40.380Z,99.90
2019-05-05T13:11:13.142Z,99.90
2019-05-05T13:13:45.443Z,99.90
2019-05-05T13:16:17.864Z,99.90
2019-05-05T13:18:50.256Z,99.90
2019-05-05T13:21:24.702Z,99.90
2019-05-05T13:23:58.712Z,99.90
2019-05-05T13:26:32.415Z,99.90
2019-05-05T13:29:06.345Z,99.90
2019-05-05T13:31:39.090Z,99.90
2019-05-05T13:34:13.624Z,99.90
2019-05-05T13:36:45.901Z,99.90
2019-05-05T13:39:18.138Z,99.90
2019-05-05T13:41:50.545Z,99.90
2019-05-05T13:44:24.350Z,99.90
2019-05-05T13:46:56.847Z,99.90
2019-05-05T13:49:30.969Z,99.90
2019-05-05T13:52:04.881Z,99.90
2019-05-05T13:54:37.583Z,99.90
2019-05-05T13:57:10.134Z,99.90
2019-05-05T13:59:44.468Z,99.90
2019-05-05T14:02:17.112Z,99.90
2019-05-05T14:04:49.929Z,99.90
2019-05-05T14:07:24.014Z,99.90
2019-05-05T14:09:58.940Z,99.90
2019-05-05T14:12:30.841Z,99.90
2019-05-05T14:15:04.053Z,99.90
2019-05-05T14:17:36.960Z,99.90
2019-05-05T14:20:12.146Z,99.90
2019-05-05T14:22:44.839Z,99.90
2019-05-05T14:25:19.413Z,99.90
2019-05-05T14:27:54.010Z,99.90
2019-05-05T14:30:28.460Z,99.90
2019-05-05T14:33:03.671Z,99.90
2019-05-05T14:35:37.166Z,99.90
2019-05-05T14:38:11.174Z,99.90
2019-05-05T14:40:44.579Z,99.90
2019-05-05T14:43:17.088Z,99.90
2019-05-05T14:45:50.479Z,99.90
2019-05-05T14:48:24.202Z,99.90
2019-05-05T14:50:56.721Z,99.90
2019-05-05T14:53:29.021Z,99.90
2019-05-05T14:56:01.667Z,99.90
2019-05-05T14:58:35.124Z,99.90
2019-05-05T15:01:07.750Z,99.90
2019-05-05T15:03:40.262Z,99.90
2019-05-05T15:06:15.370Z,99.90
2019-05-05T15:08:49.615Z,99.90
2019-05-05T15:11:23.544Z,99.90
2019-05-05T15:13:56.063Z,99.90
2019-05-05T15:16:30.213Z,99.90
2019-05-05T15:19:03.928Z,99.90
2019-05-05T15:21:36.556Z,99.90
2019-05-05T15:24:09.202Z,99.90
2019-05-05T15:26:51.258Z,99.90
2019-05-05T15:29:15.477Z,99.90
2019-05-05T15:31:47.971Z,99.90
2019-05-05T15:34:20.737Z,99.90
2019-05-05T15:36:54.670Z,99.90
2019-05-05T15:39:27.143Z,99.90
2019-05-05T15:41:59.429Z,99.90
2019-05-05T15:44:32.074Z,99.90
2019-05-05T15:47:04.421Z,99.90
2019-05-05T15:49:37.054Z,99.90
2019-05-05T15:52:10.648Z,99.90
2019-05-05T15:54:44.633Z,99.90
2019-05-05T15:57:18.245Z,99.90
2019-05-05T15:59:51.019Z,99.90
2019-05-05T16:02:24.030Z,99.90
2019-05-05T16:04:57.705Z,99.90
2019-05-05T16:07:30.212Z,99.90
2019-05-05T16:10:04.114Z,99.90
2019-05-05T16:12:39.629Z,99.90
2019-05-05T16:15:13.838Z,99.90
2019-05-05T16:17:48.165Z,99.90
2019-05-05T16:20:22.074Z,99.90
2019-05-05T16:22:55.760Z,99.90
2019-05-05T16:25:28.548Z,99.90
2019-05-05T16:28:01.051Z,99.90
2019-05-05T16:30:33.910Z,99.90
2019-05-05T16:33:06.469Z,99.90
2019-05-05T16:35:38.800Z,99.90
2019-05-05T16:38:14.703Z,99.90
2019-05-05T16:40:48.004Z,99.90
2019-05-05T16:43:20.735Z,99.90
2019-05-05T16:45:53.740Z,99.90
2019-05-05T16:48:27.589Z,99.90
2019-05-05T16:51:00.453Z,99.90
2019-05-05T16:53:34.679Z,99.90
2019-05-05T16:56:10.090Z,99.90
2019-05-05T16:58:44.864Z,99.90
2019-05-05T17:01:17.878Z,99.90
2019-05-05T17:03:50.657Z,99.90
2019-05-05T17:06:24.407Z,99.90
2019-05-05T17:08:56.940Z,99.90
2019-05-05T17:11:29.854Z,99.90
2019-05-05T17:14:03.900Z,99.90
2019-05-05T17:16:37.757Z,99.90
2019-05-05T17:19:11.344Z,99.90
2019-05-05T17:21:45.150Z,99.90
2019-05-05T17:24:17.997Z,99.90
2019-05-05T17:26:50.883Z,99.90
2019-05-05T17:29:23.660Z,99.90
2019-05-05T17:31:56.333Z,99.90
2019-05-05T17:34:28.631Z,99.90
2019-05-05T17:37:01.366Z,99.90
2019-05-05T17:39:34.929Z,99.90
2019-05-05T17:42:08.639Z,99.90
2019-05-05T17:44:44.273Z,99.90
2019-05-05T17:47:17.891Z,99.90
2019-05-05T17:49:51.648Z,99.90
2019-05-05T17:52:25.567Z,99.90
2019-05-05T17:54:58.836Z,99.90
2019-05-05T17:57:31.522Z,99.90
2019-05-05T18:00:04.315Z,99.90
2019-05-05T18:02:38.448Z,99.90
2019-05-05T18:05:11.043Z,99.90
2019-05-05T18:07:45.061Z,99.90
2019-05-05T18:10:19.140Z,99.90
2019-05-05T18:12:54.048Z,99.90
2019-05-05T18:15:28.591Z,99.90
2019-05-05T18:18:01.428Z,99.90
2019-05-05T18:20:34.156Z,99.90
2019-05-05T18:23:06.558Z,99.90
2019-05-05T18:25:38.979Z,99.90
2019-05-05T18:28:16.929Z,99.90
2019-05-05T18:30:45.307Z,99.90
2019-05-05T18:33:18.020Z,99.90
2019-05-05T18:35:50.784Z,99.90
2019-05-05T18:38:23.569Z,99.90
2019-05-05T18:40:57.509Z,99.90
2019-05-05T18:43:31.077Z,99.90
2019-05-05T18:46:04.799Z,99.90
2019-05-05T18:48:37.466Z,99.90
2019-05-05T18:51:10.034Z,99.90
2019-05-05T18:53:43.657Z,99.90
2019-05-05T18:56:16.319Z,99.90
2019-05-05T18:58:48.963Z,99.90
2019-05-05T19:01:24.057Z,99.90
2019-05-05T19:03:58.117Z,99.90
2019-05-05T19:06:31.888Z,99.90
2019-05-05T19:09:05.503Z,99.90
2019-05-05T19:11:39.431Z,99.90
2019-05-05T19:14:11.725Z,99.90
2019-05-05T19:16:44.353Z,99.90
2019-05-05T19:19:16.993Z,99.90
2019-05-05T19:21:50.698Z,99.90
2019-05-05T19:24:23.417Z,99.90
2019-05-05T19:26:56.309Z,99.90
2019-05-05T19:29:28.950Z,99.90
2019-05-05T19:32:03.976Z,99.90
2019-05-05T19:34:36.572Z,99.90
2019-05-05T19:37:09.126Z,99.90
2019-05-05T19:39:42.196Z,99.90
2019-05-05T19:42:14.670Z,99.90
2019-05-05T19:44:47.535Z,99.90
2019-05-05T19:47:21.314Z,99.90
2019-05-05T19:49:55.261Z,99.90
2019-05-05T19:52:28.001Z,99.90
2019-05-05T19:55:04.263Z,99.90
2019-05-05T19:57:36.090Z,99.90
2019-05-05T20:00:09.471Z,99.90
2019-05-05T20:02:43.779Z,99.90
2019-05-05T20:05:17.141Z,99.90
2019-05-05T20:07:49.481Z,99.90
2019-05-05T20:10:22.483Z,99.90
2019-05-05T20:12:54.895Z,99.90
2019-05-05T20:15:28.814Z,99.90
2019-05-05T20:18:01.514Z,99.90
2019-05-05T20:20:33.844Z,99.90
2019-05-05T20:23:06.156Z,99.90
2019-05-05T20:25:39.022Z,99.90
2019-05-05T20:28:11.598Z,99.90
2019-05-05T20:30:44.275Z,99.90
2019-05-05T20:33:17.880Z,99.90
2019-05-05T20:35:53.742Z,99.90
2019-05-05T20:38:26.726Z,99.90
2019-05-05T20:41:00.735Z,99.90
2019-05-05T20:43:33.909Z,99.90
2019-05-05T20:46:06.455Z,99.90
2019-05-05T20:48:41.182Z,99.90
2019-05-05T20:51:13.844Z,99.90
